Time;durP1;ratioP1;P1;durP2;ratioP2;P2;SDS_P1;SDS_P2;PMS_P1;PMS_P2;Temp;Humidity;BMP_temperature;BMP_pressure;BME280_temperature;BME280_humidity;BME280_pressure;Samples;Min_cycle;Max_cycle;Signal;HPM_P1;HPM_P2
2024/01/06 00:00:36;;;;;;;29.50;14.52;;;;;;;-146.25;100.00;52627.75;2096693;28;32905;-67
2024/01/06 00:01:37;;;;;;;22.88;12.45;;;;;;;-146.25;100.00;52633.81;2096651;28;36163;-67
2024/01/06 00:02:39;;;;;;;24.15;13.95;;;;;;;-146.25;100.00;52668.28;2096059;28;33155;-67
2024/01/06 00:03:41;;;;;;;22.58;12.57;;;;;;;-146.25;100.00;52611.50;2096726;28;34046;-67
2024/01/06 00:04:43;;;;;;;28.08;13.98;;;;;;;-146.25;100.00;52637.88;2096469;28;35762;-67
2024/01/06 00:05:47;;;;;;;26.52;14.32;;;;;;;-146.25;100.00;52635.84;2097410;28;20033;-67
2024/01/06 00:06:51;;;;;;;24.45;12.80;;;;;;;-146.25;100.00;52617.59;2096575;28;35816;-67
2024/01/06 00:07:53;;;;;;;28.42;15.70;;;;;;;-146.25;100.00;52692.63;2096677;28;32951;-67
2024/01/06 00:08:54;;;;;;;25.73;14.55;;;;;;;-146.25;100.00;52660.19;2096795;28;31765;-66
2024/01/06 00:10:02;;;;;;;28.40;15.52;;;;;;;-146.25;100.00;52641.94;2097202;28;20045;-67
2024/01/06 00:11:06;;;;;;;33.17;16.45;;;;;;;-146.25;100.00;52605.44;2096846;28;32407;-65
2024/01/06 00:12:08;;;;;;;30.00;15.23;;;;;;;-146.25;100.00;52656.13;2096244;28;31650;-67
2024/01/06 00:13:10;;;;;;;27.88;15.85;;;;;;;-146.25;100.00;52643.97;2096663;28;34719;-67
2024/01/06 00:14:14;;;;;;;30.20;15.05;;;;;;;-146.25;100.00;52631.78;2097352;28;20834;-67
2024/01/06 00:15:16;;;;;;;27.55;15.90;;;;;;;-146.25;100.00;52660.19;2096535;28;32568;-67
2024/01/06 00:16:19;;;;;;;28.42;15.27;;;;;;;-146.25;100.00;52639.91;2096806;28;33433;-68
2024/01/06 00:17:20;;;;;;;28.23;15.23;;;;;;;-146.25;100.00;52623.69;2096388;28;32602;-68
2024/01/06 00:18:24;;;;;;;29.70;15.88;;;;;;;-146.25;100.00;52678.44;2096519;28;37834;-68
2024/01/06 00:19:26;;;;;;;30.67;16.40;;;;;;;-146.25;100.00;52676.41;2096631;28;28171;-68
2024/01/06 00:20:28;;;;;;;30.98;15.95;;;;;;;-146.25;100.00;52637.88;2096640;28;29818;-68
2024/01/06 00:21:33;;;;;;;30.42;16.08;;;;;;;-146.25;100.00;52670.31;2096712;28;35914;-68
2024/01/06 00:22:35;;;;;;;27.38;14.82;;;;;;;-146.25;100.00;52656.13;2097571;28;20071;-66
2024/01/06 00:23:40;;;;;;;32.22;16.17;;;;;;;-146.25;100.00;52615.56;2097015;28;20041;-67
2024/01/06 00:24:42;;;;;;;31.40;16.95;;;;;;;-146.25;100.00;52648.00;2096991;28;30471;-67
2024/01/06 00:25:44;;;;;;;30.08;16.05;;;;;;;-146.25;100.00;52643.97;2096487;28;33960;-69
2024/01/06 00:26:48;;;;;;;33.22;16.33;;;;;;;-146.25;100.00;52645.97;2097186;28;20044;-68
2024/01/06 00:27:51;;;;;;;31.88;16.60;;;;;;;-146.25;100.00;52676.41;2096055;28;37165;-67
2024/01/06 00:28:54;;;;;;;31.55;16.15;;;;;;;-146.25;100.00;52668.28;2097327;28;20794;-69
2024/01/06 00:29:56;;;;;;;28.83;15.23;;;;;;;-146.25;100.00;52637.88;2096760;28;30071;-67
2024/01/06 00:30:57;;;;;;;30.50;16.33;;;;;;;-146.25;100.00;52704.78;2096528;28;33089;-67
2024/01/06 00:31:59;;;;;;;30.45;16.63;;;;;;;-146.25;100.00;52607.47;2097230;28;20040;-66
2024/01/06 00:33:04;;;;;;;30.95;15.43;;;;;;;-146.25;100.00;52688.56;2096517;28;36898;-67
2024/01/06 00:34:05;;;;;;;32.05;16.33;;;;;;;-146.25;100.00;52607.47;2096223;28;33068;-67
2024/01/06 00:35:07;;;;;;;33.70;17.65;;;;;;;-146.25;100.00;52660.19;2096402;28;37284;-68
2024/01/06 00:36:09;;;;;;;31.85;16.50;;;;;;;-146.25;100.00;52650.03;2096556;28;34485;-66
2024/01/06 00:37:12;;;;;;;31.48;15.80;;;;;;;-146.25;100.00;52672.34;2097057;28;20960;-67
2024/01/06 00:38:14;;;;;;;32.42;15.55;;;;;;;-146.25;100.00;52664.22;2096475;28;34124;-66
2024/01/06 00:39:16;;;;;;;29.20;15.05;;;;;;;-146.25;100.00;52660.19;2096645;28;34245;-67
2024/01/06 00:40:19;;;;;;;30.92;16.20;;;;;;;-146.25;100.00;52625.72;2087302;28;34102;-67
2024/01/06 00:41:21;;;;;;;29.30;16.02;;;;;;;-146.25;100.00;52650.03;2087783;28;35638;-67
2024/01/06 00:42:23;;;;;;;31.23;16.05;;;;;;;-146.25;100.00;52619.63;2096776;28;20041;-67
2024/01/06 00:43:24;;;;;;;37.88;17.17;;;;;;;-146.25;100.00;52660.19;2096278;28;31723;-66
2024/01/06 00:44:26;;;;;;;33.20;16.67;;;;;;;-146.25;100.00;52676.41;2096279;28;36914;-67
2024/01/06 00:45:32;;;;;;;29.70;15.27;;;;;;;-146.25;100.00;52629.75;2097092;28;20040;-67
2024/01/06 00:46:34;;;;;;;32.97;16.33;;;;;;;-146.25;100.00;52611.50;2087939;28;20030;-65
2024/01/06 00:47:38;;;;;;;31.20;16.17;;;;;;;-146.25;100.00;52670.31;2087214;28;35951;-67
2024/01/06 00:48:40;;;;;;;26.58;13.38;;;;;;;-146.25;100.00;52637.88;2096054;28;33117;-67
2024/01/06 00:49:42;;;;;;;28.67;15.30;;;;;;;-146.25;100.00;52688.56;2096273;28;35594;-66
2024/01/06 00:50:44;;;;;;;36.53;16.42;;;;;;;-146.25;100.00;52615.56;2096337;28;35912;-66
2024/01/06 00:51:48;;;;;;;31.35;15.85;;;;;;;-146.25;100.00;52639.91;2097329;28;20096;-67
2024/01/06 00:52:53;;;;;;;28.00;14.77;;;;;;;-146.25;100.00;52641.94;2096319;28;37461;-67
2024/01/06 00:53:55;;;;;;;26.55;14.23;;;;;;;-146.25;100.00;52643.97;2097119;28;20040;-66
2024/01/06 00:54:57;;;;;;;31.95;15.10;;;;;;;-146.25;100.00;52648.00;2095715;28;35148;-67
2024/01/06 00:56:02;;;;;;;30.88;15.07;;;;;;;-146.25;100.00;52648.00;2095954;28;35278;-67
2024/01/06 00:57:05;;;;;;;31.80;14.68;;;;;;;-146.25;100.00;52662.22;2097047;28;20043;-67
2024/01/06 00:58:08;;;;;;;29.75;15.50;;;;;;;-146.25;100.00;52654.09;2096529;28;35542;-67
2024/01/06 00:59:10;;;;;;;30.45;15.15;;;;;;;-146.25;100.00;52627.75;2095975;28;33896;-67
2024/01/06 01:00:13;;;;;;;31.15;16.25;;;;;;;-146.25;100.00;52639.91;2097171;28;20040;-67
2024/01/06 01:01:15;;;;;;;34.67;17.60;;;;;;;-146.25;100.00;52633.81;2096363;28;34569;-66
2024/01/06 01:02:17;;;;;;;31.77;16.77;;;;;;;-146.25;100.00;52641.94;2097082;28;20382;-67
2024/01/06 01:03:19;;;;;;;32.83;16.52;;;;;;;-146.25;100.00;52654.09;2096133;28;36158;-66
2024/01/06 01:04:21;;;;;;;30.70;16.42;;;;;;;-146.25;100.00;52660.19;2096664;28;34127;-67
2024/01/06 01:05:23;;;;;;;32.88;16.60;;;;;;;-146.25;100.00;52639.91;2096082;28;33286;-66
2024/01/06 01:06:24;;;;;;;34.83;17.38;;;;;;;-146.25;100.00;52658.16;2096553;28;37690;-67
2024/01/06 01:07:27;;;;;;;33.92;17.05;;;;;;;-146.25;100.00;52645.97;2096737;28;20044;-67
2024/01/06 01:08:32;;;;;;;32.35;16.40;;;;;;;-146.25;100.00;52662.22;2097136;28;20041;-68
2024/01/06 01:09:36;;;;;;;34.65;16.77;;;;;;;-146.25;100.00;52658.16;2096996;28;21876;-66
2024/01/06 01:10:38;;;;;;;32.83;16.58;;;;;;;-146.25;100.00;52645.97;2096027;28;36894;-67
2024/01/06 01:11:44;;;;;;;35.33;16.58;;;;;;;-146.25;100.00;52656.13;2096299;28;28430;-67
2024/01/06 01:12:46;;;;;;;32.85;17.02;;;;;;;-146.25;100.00;52631.78;2096727;28;30159;-67
2024/01/06 01:13:47;;;;;;;35.28;17.58;;;;;;;-146.25;100.00;52615.56;2095861;28;36293;-67
2024/01/06 01:14:50;;;;;;;33.55;16.98;;;;;;;-146.25;100.00;52674.38;2096659;28;28984;-67
2024/01/06 01:15:52;;;;;;;35.10;16.90;;;;;;;-146.25;100.00;52654.09;2096528;28;29233;-67
2024/01/06 01:16:54;;;;;;;36.35;17.65;;;;;;;-146.25;100.00;52635.84;2097094;28;20040;-67
2024/01/06 01:17:56;;;;;;;35.78;18.67;;;;;;;-146.25;100.00;52641.94;2096194;28;34386;-67
2024/01/06 01:18:58;;;;;;;34.28;17.15;;;;;;;-146.25;100.00;52656.13;2096450;28;30840;-67
2024/01/06 01:20:00;;;;;;;37.50;18.15;;;;;;;-146.25;100.00;52599.34;2096248;28;32994;-67
2024/01/06 01:21:01;;;;;;;36.70;17.58;;;;;;;-146.25;100.00;52623.69;2096682;28;29733;-67
2024/01/06 01:22:03;;;;;;;29.20;15.30;;;;;;;-146.25;100.00;52623.69;2096862;28;20163;-66
2024/01/06 01:23:08;;;;;;;32.60;16.67;;;;;;;-146.25;100.00;52645.97;2096487;28;34928;-67
2024/01/06 01:24:09;;;;;;;36.08;18.30;;;;;;;-146.25;100.00;52650.03;2096184;28;33539;-66
2024/01/06 01:25:13;;;;;;;32.00;16.27;;;;;;;-146.25;100.00;52643.97;2096422;28;34145;-67
2024/01/06 01:26:15;;;;;;;36.55;17.40;;;;;;;-146.25;100.00;52652.06;2096080;28;35610;-67
2024/01/06 01:27:17;;;;;;;35.22;18.23;;;;;;;-146.25;100.00;52652.06;2096688;28;20085;-67
2024/01/06 01:28:19;;;;;;;34.70;16.58;;;;;;;-146.25;100.00;52672.34;2095426;28;37530;-66
2024/01/06 01:29:20;;;;;;;38.10;17.88;;;;;;;-146.25;100.00;52603.41;2096425;28;34620;-67
2024/01/06 01:30:22;;;;;;;32.28;16.38;;;;;;;-146.25;100.00;52652.06;2096097;28;32870;-67
2024/01/06 01:31:24;;;;;;;34.90;18.08;;;;;;;-146.25;100.00;52664.22;2096317;28;34857;-67
2024/01/06 01:32:28;;;;;;;35.53;17.05;;;;;;;-146.25;100.00;52672.34;2096705;28;20164;-66
2024/01/06 01:33:30;;;;;;;34.15;17.58;;;;;;;-146.25;100.00;52656.13;2096154;28;33380;-67
2024/01/06 01:34:32;;;;;;;33.63;16.95;;;;;;;-146.25;100.00;52660.19;2095975;28;33195;-66
2024/01/06 01:35:35;;;;;;;34.60;17.88;;;;;;;-146.25;100.00;52666.25;2096759;28;20044;-66
2024/01/06 01:36:36;;;;;;;34.03;17.48;;;;;;;-146.25;100.00;52645.97;2096062;28;37098;-67
2024/01/06 01:37:38;;;;;;;35.72;17.77;;;;;;;-146.25;100.00;52660.19;2096593;28;20249;-66
2024/01/06 01:38:40;;;;;;;32.70;16.90;;;;;;;-146.25;100.00;52633.81;2096327;28;35354;-67
2024/01/06 01:39:42;;;;;;;36.85;18.40;;;;;;;-146.25;100.00;52660.19;2096552;28;32913;-66
2024/01/06 01:40:44;;;;;;;38.10;18.25;;;;;;;-146.25;100.00;52670.31;2096777;28;20901;-67
2024/01/06 01:41:46;;;;;;;32.40;18.02;;;;;;;-146.25;100.00;52672.34;2096804;28;38080;-66
2024/01/06 01:42:48;;;;;;;37.60;18.00;;;;;;;-146.25;100.00;52641.94;2095826;28;34242;-67
2024/01/06 01:43:57;;;;;;;33.50;17.17;;;;;;;-146.25;100.00;52633.81;2095962;28;33728;-67
2024/01/06 01:45:00;;;;;;;32.15;16.75;;;;;;;-146.25;100.00;52629.75;2096047;28;33706;-67
2024/01/06 01:46:04;;;;;;;35.15;17.48;;;;;;;-146.25;100.00;52676.41;2095952;28;36458;-67
2024/01/06 01:47:06;;;;;;;32.75;16.98;;;;;;;-146.25;100.00;52672.34;2096856;28;20815;-67
2024/01/06 01:48:08;;;;;;;32.65;17.27;;;;;;;-146.25;100.00;52674.38;2095817;28;38455;-67
2024/01/06 01:49:10;;;;;;;34.78;17.35;;;;;;;-146.25;100.00;52658.16;2096056;28;31116;-67
2024/01/06 01:50:14;;;;;;;35.40;16.98;;;;;;;-146.25;100.00;52656.13;2095234;28;36328;-67
2024/01/06 01:51:16;;;;;;;31.90;16.60;;;;;;;-146.25;100.00;52611.50;2095440;28;36610;-67
2024/01/06 01:52:18;;;;;;;32.75;16.77;;;;;;;-146.25;100.00;52643.97;2095988;28;20037;-66
2024/01/06 01:53:20;;;;;;;34.15;16.65;;;;;;;-146.25;100.00;52696.69;2095987;28;37739;-66
2024/01/06 01:54:22;;;;;;;29.50;16.02;;;;;;;-146.25;100.00;52688.56;2095101;28;36530;-67
2024/01/06 01:55:24;;;;;;;32.13;16.58;;;;;;;-146.25;100.00;52641.94;2095551;28;31022;-67
2024/01/06 01:56:26;;;;;;;31.05;16.65;;;;;;;-146.25;100.00;52633.81;2096053;28;36093;-67
2024/01/06 01:57:31;;;;;;;29.80;14.70;;;;;;;-146.25;100.00;52660.19;2095419;28;33474;-67
2024/01/06 01:58:33;;;;;;;30.98;15.93;;;;;;;-146.25;100.00;52654.09;2087113;28;35798;-67
2024/01/06 01:59:35;;;;;;;31.00;15.18;;;;;;;-146.25;100.00;52639.91;2087227;28;34443;-66
2024/01/06 02:00:37;;;;;;;31.10;16.70;;;;;;;-146.25;100.00;52625.72;2087534;28;25081;-67
2024/01/06 02:01:42;;;;;;;30.33;16.23;;;;;;;-146.25;100.00;52643.97;2096112;28;37071;-67
2024/01/06 02:02:44;;;;;;;29.42;16.20;;;;;;;-146.25;100.00;52684.50;2095724;28;35994;-67
2024/01/06 02:03:45;;;;;;;28.27;15.77;;;;;;;-146.25;100.00;52676.41;2095986;28;32463;-67
2024/01/06 02:04:47;;;;;;;29.05;14.93;;;;;;;-146.25;100.00;52645.97;2095904;28;32995;-67
2024/01/06 02:05:49;;;;;;;30.10;14.65;;;;;;;-146.25;100.00;52660.19;2095981;28;34057;-68
2024/01/06 02:06:54;;;;;;;30.60;15.90;;;;;;;-146.25;100.00;52625.72;2096415;28;20033;-68
2024/01/06 02:07:56;;;;;;;26.88;13.93;;;;;;;-146.25;100.00;52654.09;2096111;28;35215;-67
2024/01/06 02:08:58;;;;;;;28.33;14.90;;;;;;;-146.25;100.00;52656.13;2095988;28;33229;-67
2024/01/06 02:09:59;;;;;;;27.77;14.73;;;;;;;-146.25;100.00;52648.00;2095614;28;37033;-67
2024/01/06 02:11:05;;;;;;;28.38;15.45;;;;;;;-146.25;100.00;52617.59;2096742;28;31201;-67
2024/01/06 02:12:07;;;;;;;30.40;15.48;;;;;;;-146.25;100.00;52648.00;2097773;28;32029;-66
2024/01/06 02:13:12;;;;;;;28.08;15.48;;;;;;;-146.25;100.00;52643.97;2097088;28;35226;-68
2024/01/06 02:14:14;;;;;;;25.10;13.10;;;;;;;-146.25;100.00;52643.97;2097394;28;27232;-67
2024/01/06 02:15:15;;;;;;;30.52;14.73;;;;;;;-146.25;100.00;52615.56;2097328;28;38308;-66
2024/01/06 02:16:17;;;;;;;25.90;13.40;;;;;;;-146.25;100.00;52639.91;2097878;28;31969;-68
2024/01/06 02:17:25;;;;;;;26.75;14.05;;;;;;;-146.25;100.00;52611.50;2097568;28;34602;-68
2024/01/06 02:18:27;;;;;;;32.58;15.85;;;;;;;-146.25;100.00;52621.66;2097086;28;33246;-68
2024/01/06 02:19:29;;;;;;;27.00;13.73;;;;;;;-146.25;100.00;52650.03;2097005;28;32687;-68
2024/01/06 02:20:31;;;;;;;26.67;14.52;;;;;;;-146.25;100.00;52654.09;2097488;28;34670;-69
2024/01/06 02:21:39;;;;;;;28.48;13.90;;;;;;;-146.25;100.00;52684.50;2097246;28;39047;-67
2024/01/06 02:22:43;;;;;;;27.13;14.25;;;;;;;-146.25;100.00;52682.47;2096968;28;33781;-67
2024/01/06 02:23:44;;;;;;;25.92;13.68;;;;;;;-146.25;100.00;52641.94;2096456;28;37107;-68
2024/01/06 02:24:46;;;;;;;27.92;14.10;;;;;;;-146.25;100.00;52641.94;2097925;28;31685;-67
2024/01/06 02:25:48;;;;;;;22.17;12.20;;;;;;;-146.25;100.00;52662.22;2097473;28;34123;-68
2024/01/06 02:26:52;;;;;;;24.10;13.25;;;;;;;-146.25;100.00;52648.00;2097144;28;38038;-68
2024/01/06 02:27:54;;;;;;;25.45;13.20;;;;;;;-146.25;100.00;52633.81;2097627;28;20044;-67
2024/01/06 02:28:59;;;;;;;24.70;13.38;;;;;;;-146.25;100.00;52660.19;2098384;28;20044;-67
2024/01/06 02:30:01;;;;;;;27.42;13.80;;;;;;;-146.25;100.00;52666.25;2097280;28;33323;-68
2024/01/06 02:31:05;;;;;;;22.83;12.82;;;;;;;-146.25;100.00;52672.34;2097396;28;31924;-68
2024/01/06 02:32:07;;;;;;;25.27;13.25;;;;;;;-146.25;100.00;52643.97;2097127;28;37092;-68
2024/01/06 02:33:08;;;;;;;26.23;13.63;;;;;;;-146.25;100.00;52676.41;2096896;28;33854;-68
2024/01/06 02:34:13;;;;;;;22.80;12.35;;;;;;;-146.25;100.00;52680.47;2097425;28;30340;-67
2024/01/06 02:35:14;;;;;;;22.80;13.13;;;;;;;-146.25;100.00;52660.19;2097523;28;31899;-68
2024/01/06 02:36:16;;;;;;;21.60;11.48;;;;;;;-146.25;100.00;52676.41;2097007;28;36295;-68
2024/01/06 02:37:18;;;;;;;24.00;12.30;;;;;;;-146.25;100.00;52619.63;2097222;28;36578;-68
2024/01/06 02:38:22;;;;;;;23.33;12.60;;;;;;;-146.25;100.00;52666.25;2097411;28;32014;-65
2024/01/06 02:39:24;;;;;;;24.17;12.80;;;;;;;-146.25;100.00;52621.66;2097062;28;36297;-67
2024/01/06 02:40:29;;;;;;;23.45;12.63;;;;;;;-146.25;100.00;52696.69;2098190;28;20984;-66
2024/01/06 02:41:31;;;;;;;26.90;12.88;;;;;;;-146.25;100.00;52660.19;2097374;28;35920;-68
2024/01/06 02:42:32;;;;;;;22.45;12.85;;;;;;;-146.25;100.00;52645.97;2097079;28;36921;-67
2024/01/06 02:43:34;;;;;;;24.27;12.88;;;;;;;-146.25;100.00;52629.75;2097410;28;32896;-67
2024/01/06 02:44:36;;;;;;;23.67;12.85;;;;;;;-146.25;100.00;52617.59;2097167;28;37193;-67
2024/01/06 02:45:41;;;;;;;22.98;12.90;;;;;;;-146.25;100.00;52668.28;2097845;28;20136;-66
2024/01/06 02:46:45;;;;;;;25.17;12.45;;;;;;;-146.25;100.00;52670.31;2097542;28;35836;-67
2024/01/06 02:47:46;;;;;;;23.10;12.20;;;;;;;-146.25;100.00;52668.28;2097018;28;37585;-67
2024/01/06 02:48:48;;;;;;;22.50;12.60;;;;;;;-146.25;100.00;52660.19;2097321;28;21040;-67
2024/01/06 02:49:50;;;;;;;21.67;11.82;;;;;;;-146.25;100.00;52631.78;2097278;28;34687;-67
2024/01/06 02:50:52;;;;;;;23.77;13.07;;;;;;;-146.25;100.00;52623.69;2097369;28;32947;-67
2024/01/06 02:51:54;;;;;;;26.20;12.43;;;;;;;-146.25;100.00;52652.06;2097623;28;20029;-67
2024/01/06 02:52:56;;;;;;;26.58;13.18;;;;;;;-146.25;100.00;52656.13;2097170;28;36835;-69
2024/01/06 02:53:58;;;;;;;22.25;12.50;;;;;;;-146.25;100.00;52672.34;2097827;28;20153;-67
2024/01/06 02:55:02;;;;;;;20.77;12.02;;;;;;;-146.25;100.00;52643.97;2097691;28;20917;-67
2024/01/06 02:56:04;;;;;;;24.08;12.45;;;;;;;-146.25;100.00;52639.91;2097174;28;36687;-69
2024/01/06 02:57:06;;;;;;;23.08;12.02;;;;;;;-146.25;100.00;52660.19;2097380;28;34179;-68
2024/01/06 02:58:11;;;;;;;23.17;12.68;;;;;;;-146.25;100.00;52641.94;2097348;28;34459;-66
2024/01/06 02:59:13;;;;;;;24.45;12.43;;;;;;;-146.25;100.00;52627.75;2097555;28;29303;-66
2024/01/06 03:00:15;;;;;;;23.77;12.55;;;;;;;-146.25;100.00;52664.22;2097118;28;20056;-67
2024/01/06 03:01:20;;;;;;;27.38;13.55;;;;;;;-146.25;100.00;52684.50;2089191;28;32474;-67
2024/01/06 03:02:25;;;;;;;25.00;13.63;;;;;;;-146.25;100.00;52704.78;2089594;28;20041;-68
2024/01/06 03:03:26;;;;;;;25.48;12.77;;;;;;;-146.25;100.00;52672.34;2088322;28;34537;-68
2024/01/06 03:04:28;;;;;;;24.00;13.35;;;;;;;-146.25;100.00;52654.09;2091106;28;36659;-67
2024/01/06 03:05:30;;;;;;;27.65;13.35;;;;;;;-146.25;100.00;52676.41;2097104;28;33944;-67
2024/01/06 03:06:33;;;;;;;23.75;13.55;;;;;;;-146.25;100.00;52641.94;2097085;28;36844;-67
2024/01/06 03:07:35;;;;;;;23.92;12.93;;;;;;;-146.25;100.00;52650.03;2097406;28;29508;-67
2024/01/06 03:08:37;;;;;;;24.67;12.43;;;;;;;-146.25;100.00;52613.53;2097646;28;33597;-67
2024/01/06 03:09:38;;;;;;;25.65;12.95;;;;;;;-146.25;100.00;52633.81;2096954;28;36995;-67
2024/01/06 03:10:43;;;;;;;26.17;13.32;;;;;;;-146.25;100.00;52664.22;2097137;28;30189;-67
2024/01/06 03:11:45;;;;;;;26.70;14.02;;;;;;;-146.25;100.00;52686.53;2097232;28;31336;-65
2024/01/06 03:12:47;;;;;;;25.38;13.20;;;;;;;-146.25;100.00;52658.16;2097503;28;26774;-67
2024/01/06 03:13:49;;;;;;;25.25;14.18;;;;;;;-146.25;100.00;52696.69;2096946;28;21284;-67
2024/01/06 03:14:53;;;;;;;26.05;14.25;;;;;;;-146.25;100.00;52643.97;2097392;28;20152;-66
2024/01/06 03:15:54;;;;;;;25.10;13.02;;;;;;;-146.25;100.00;52650.03;2097061;28;31237;-67
2024/01/06 03:16:58;;;;;;;25.75;14.52;;;;;;;-146.25;100.00;52684.50;2096829;28;37301;-67
2024/01/06 03:18:00;;;;;;;23.80;13.00;;;;;;;-146.25;100.00;52645.97;2097721;28;20045;-66
2024/01/06 03:19:01;;;;;;;26.13;14.13;;;;;;;-146.25;100.00;52635.84;2096557;28;36352;-66
2024/01/06 03:20:05;;;;;;;24.35;13.60;;;;;;;-146.25;100.00;52656.13;2096597;28;34754;-67
2024/01/06 03:21:18;;;;;;;27.17;14.85;;;;;;;-146.25;100.00;52672.34;2097026;28;31235;-64
2024/01/06 03:22:20;;;;;;;21.98;12.82;;;;;;;-146.25;100.00;52627.75;2096924;28;33677;-67
2024/01/06 03:23:23;;;;;;;23.60;13.23;;;;;;;-146.25;100.00;52645.97;2097578;28;20045;-67
2024/01/06 03:24:26;;;;;;;20.58;12.10;;;;;;;-146.25;100.00;52637.88;2096642;28;37408;-66
2024/01/06 03:25:28;;;;;;;23.00;12.98;;;;;;;-146.25;100.00;52660.19;2097096;28;20812;-66
2024/01/06 03:26:35;;;;;;;23.58;13.05;;;;;;;-146.25;100.00;52623.69;2097435;28;20037;-67
2024/01/06 03:27:37;;;;;;;24.50;14.15;;;;;;;-146.25;100.00;52648.00;2096002;28;33547;-66
2024/01/06 03:28:38;;;;;;;26.05;14.88;;;;;;;-146.25;100.00;52668.28;2097411;28;20049;-67
2024/01/06 03:29:40;;;;;;;27.10;14.68;;;;;;;-146.25;100.00;52674.38;2096797;28;35190;-67
2024/01/06 03:30:44;;;;;;;26.23;14.40;;;;;;;-146.25;100.00;52652.06;2096952;28;33528;-65
2024/01/06 03:31:46;;;;;;;26.48;15.00;;;;;;;-146.25;100.00;52615.56;2097343;28;30684;-66
2024/01/06 03:32:48;;;;;;;28.30;15.60;;;;;;;-146.25;100.00;52678.44;2096558;28;35495;-67
2024/01/06 03:33:51;;;;;;;26.88;14.82;;;;;;;-146.25;100.00;52656.13;2096757;28;36838;-67
2024/01/06 03:34:53;;;;;;;27.80;14.85;;;;;;;-146.25;100.00;52680.47;2097333;28;20137;-67
2024/01/06 03:35:58;;;;;;;27.23;15.23;;;;;;;-146.25;100.00;52682.47;2096809;28;36633;-67
2024/01/06 03:37:00;;;;;;;26.45;15.05;;;;;;;-146.25;100.00;52643.97;2096344;28;36781;-67
2024/01/06 03:38:01;;;;;;;26.10;14.60;;;;;;;-146.25;100.00;52609.50;2097082;28;31860;-67
2024/01/06 03:39:04;;;;;;;28.60;16.02;;;;;;;-146.25;100.00;52672.34;2096438;28;35659;-67
2024/01/06 03:40:06;;;;;;;27.25;16.23;;;;;;;-146.25;100.00;52670.31;2096809;28;32029;-67
2024/01/06 03:41:08;;;;;;;27.17;15.57;;;;;;;-146.25;100.00;52654.09;2097001;28;20056;-66
2024/01/06 03:42:10;;;;;;;28.52;16.50;;;;;;;-146.25;100.00;52650.03;2096856;28;35513;-67
2024/01/06 03:43:12;;;;;;;29.25;16.35;;;;;;;-146.25;100.00;52650.03;2097110;28;20118;-67
2024/01/06 03:44:13;;;;;;;27.70;16.27;;;;;;;-146.25;100.00;52656.13;2097051;28;33075;-67
2024/01/06 03:45:15;;;;;;;28.35;16.08;;;;;;;-146.25;100.00;52674.38;2097031;28;20961;-65
2024/01/06 03:46:17;;;;;;;28.73;16.58;;;;;;;-146.25;100.00;52650.03;2096835;28;36294;-66
2024/01/06 03:47:19;;;;;;;30.58;17.65;;;;;;;-146.25;100.00;52645.97;2096817;28;32471;-66
2024/01/06 03:48:20;;;;;;;30.15;17.08;;;;;;;-146.25;100.00;52607.47;2096801;28;33638;-67
2024/01/06 03:49:23;;;;;;;27.83;15.88;;;;;;;-146.25;100.00;52672.34;2096553;28;35923;-67
2024/01/06 03:50:25;;;;;;;29.13;16.60;;;;;;;-146.25;100.00;52668.28;2097769;28;20037;-67
2024/01/06 03:51:27;;;;;;;30.73;16.67;;;;;;;-146.25;100.00;52704.78;2096495;28;38049;-66
2024/01/06 03:52:31;;;;;;;29.60;16.40;;;;;;;-146.25;100.00;52641.94;2096537;28;35207;-67
2024/01/06 03:53:34;;;;;;;29.15;16.65;;;;;;;-146.25;100.00;52656.13;2097937;28;20037;-67
2024/01/06 03:54:38;;;;;;;28.52;17.17;;;;;;;-146.25;100.00;52650.03;2096979;28;33455;-66
2024/01/06 03:55:40;;;;;;;29.55;17.42;;;;;;;-146.25;100.00;52674.38;2096228;28;36308;-66
2024/01/06 03:56:42;;;;;;;27.50;16.05;;;;;;;-146.25;100.00;52648.00;2096964;28;35032;-67
2024/01/06 03:57:43;;;;;;;31.77;18.02;;;;;;;-146.25;100.00;52682.47;2096781;28;36933;-67
2024/01/06 03:58:45;;;;;;;31.85;18.17;;;;;;;-146.25;100.00;52666.25;2097153;28;30917;-66
2024/01/06 03:59:47;;;;;;;29.35;17.13;;;;;;;-146.25;100.00;52652.06;2097387;28;20045;-66
2024/01/06 04:00:49;;;;;;;29.20;16.08;;;;;;;-146.25;100.00;52627.75;2096768;28;36113;-65
2024/01/06 04:01:51;;;;;;;29.52;18.30;;;;;;;-146.25;100.00;52692.63;2096551;28;37724;-67
2024/01/06 04:02:53;;;;;;;27.48;16.38;;;;;;;-146.25;100.00;52676.41;2097315;28;20063;-66
2024/01/06 04:03:54;;;;;;;28.60;16.83;;;;;;;-146.25;100.00;52676.41;2096141;28;34791;-67
2024/01/06 04:04:58;;;;;;;30.40;17.27;;;;;;;-146.25;100.00;52668.28;2096841;28;36945;-66
2024/01/06 04:06:01;;;;;;;28.20;16.73;;;;;;;-146.25;100.00;52662.22;2096716;28;35114;-66
2024/01/06 04:07:03;;;;;;;31.17;16.98;;;;;;;-146.25;100.00;52656.13;2095905;28;36694;-67
2024/01/06 04:08:05;;;;;;;27.13;16.20;;;;;;;-146.25;100.00;52648.00;2096207;28;34975;-66
2024/01/06 04:09:07;;;;;;;28.52;16.95;;;;;;;-146.25;100.00;52635.84;2097118;28;28528;-66
2024/01/06 04:10:09;;;;;;;28.40;16.70;;;;;;;-146.25;100.00;52668.28;2096396;28;35627;-67
2024/01/06 04:11:11;;;;;;;28.75;16.90;;;;;;;-146.25;100.00;52700.72;2097593;28;20045;-66
2024/01/06 04:12:15;;;;;;;30.25;16.80;;;;;;;-146.25;100.00;52686.53;2097080;28;20025;-67
2024/01/06 04:13:18;;;;;;;26.60;16.33;;;;;;;-146.25;100.00;52672.34;2096939;28;23078;-66
2024/01/06 04:14:20;;;;;;;28.48;17.58;;;;;;;-146.25;100.00;52645.97;2096711;28;33060;-66
2024/01/06 04:15:21;;;;;;;31.30;18.13;;;;;;;-146.25;100.00;52629.75;2097735;28;20088;-67
2024/01/06 04:16:27;;;;;;;29.98;18.27;;;;;;;-146.25;100.00;52668.28;2096497;28;37616;-67
2024/01/06 04:17:31;;;;;;;28.33;17.52;;;;;;;-146.25;100.00;52643.97;2097103;28;33869;-67
2024/01/06 04:18:32;;;;;;;31.52;17.95;;;;;;;-146.25;100.00;52639.91;2096089;28;35304;-67
2024/01/06 04:19:34;;;;;;;30.10;18.23;;;;;;;-146.25;100.00;52670.31;2095863;28;34609;-66
2024/01/06 04:20:36;;;;;;;32.13;18.42;;;;;;;-146.25;100.00;52652.06;2096925;28;20044;-67
2024/01/06 04:21:38;;;;;;;29.65;16.98;;;;;;;-146.25;100.00;52607.47;2096809;28;38395;-67
2024/01/06 04:22:40;;;;;;;30.55;18.60;;;;;;;-146.25;100.00;52684.50;2096599;28;31581;-67
2024/01/06 04:23:42;;;;;;;33.88;19.65;;;;;;;-146.25;100.00;52637.88;2097101;28;20037;-66
2024/01/06 04:24:43;;;;;;;31.75;18.85;;;;;;;-146.25;100.00;52652.06;2096346;28;35205;-67
2024/01/06 04:25:45;;;;;;;29.88;17.75;;;;;;;-146.25;100.00;52690.59;2097238;28;20034;-67
2024/01/06 04:26:48;;;;;;;32.97;18.73;;;;;;;-146.25;100.00;52627.75;2096575;28;37504;-67
2024/01/06 04:27:50;;;;;;;32.85;18.52;;;;;;;-146.25;100.00;52607.47;2096330;28;32336;-67
2024/01/06 04:28:54;;;;;;;31.90;18.70;;;;;;;-146.25;100.00;52652.06;2096264;28;36981;-67
2024/01/06 04:29:56;;;;;;;29.65;17.90;;;;;;;-146.25;100.00;52676.41;2096630;28;36256;-66
2024/01/06 04:31:03;;;;;;;31.88;17.85;;;;;;;-146.25;100.00;52648.00;2097103;28;20875;-67
2024/01/06 04:32:08;;;;;;;30.40;17.80;;;;;;;-146.25;100.00;52627.75;2096498;28;37217;-67
2024/01/06 04:33:10;;;;;;;31.40;18.58;;;;;;;-146.25;100.00;52662.22;2096331;28;32069;-67
2024/01/06 04:34:11;;;;;;;32.40;17.92;;;;;;;-146.25;100.00;52652.06;2086900;28;32433;-67
2024/01/06 04:35:14;;;;;;;30.45;18.25;;;;;;;-146.25;100.00;52648.00;2087132;28;31190;-67
2024/01/06 04:36:16;;;;;;;31.30;18.50;;;;;;;-146.25;100.00;52676.41;2095854;28;32554;-67
2024/01/06 04:37:18;;;;;;;32.85;19.13;;;;;;;-146.25;100.00;52623.69;2097158;28;20952;-67
2024/01/06 04:38:19;;;;;;;31.00;17.83;;;;;;;-146.25;100.00;52648.00;2096980;28;35338;-67